createdAt,value
2018-10-01T00:00:42.428Z,14.01
2018-10-01T00:01:42.418Z,14.05
2018-10-01T00:02:42.413Z,13.99
2018-10-01T00:03:42.408Z,13.99
2018-10-01T00:04:42.410Z,13.99
2018-10-01T00:05:42.402Z,14.08
2018-10-01T00:06:42.397Z,13.94
2018-10-01T00:07:42.392Z,14.08
2018-10-01T00:08:42.382Z,14.05
2018-10-01T00:09:42.381Z,14.05
2018-10-01T00:10:42.422Z,14.05
2018-10-01T00:11:42.372Z,14.08
2018-10-01T00:12:42.369Z,14.02
2018-10-01T00:13:42.356Z,14.06
2018-10-01T00:14:42.352Z,14.09
2018-10-01T00:15:42.350Z,14.09
2018-10-01T00:16:42.342Z,14.05
2018-10-01T00:17:42.346Z,14.09
2018-10-01T00:18:42.340Z,14.06
2018-10-01T00:19:42.333Z,14.08
2018-10-01T00:20:42.324Z,14.06
2018-10-01T00:21:42.315Z,14.11
2018-10-01T00:22:42.311Z,14.13
2018-10-01T00:23:42.310Z,14.04
2018-10-01T00:24:42.305Z,14.16
2018-10-01T00:25:42.295Z,14.09
2018-10-01T00:26:42.291Z,14.09
2018-10-01T00:27:42.286Z,14.06
2018-10-01T00:28:42.281Z,14.06
2018-10-01T00:29:42.281Z,14.05
2018-10-01T00:30:42.276Z,13.96
2018-10-01T00:31:42.271Z,14.05
2018-10-01T00:32:42.266Z,14.11
2018-10-01T00:33:42.255Z,14.06
2018-10-01T00:34:42.250Z,14.09
2018-10-01T00:35:42.245Z,14.06
2018-10-01T00:36:42.239Z,14.05
2018-10-01T00:37:42.239Z,13.98
2018-10-01T00:38:42.234Z,13.99
2018-10-01T00:39:42.225Z,13.99
2018-10-01T00:40:42.224Z,14.02
2018-10-01T00:41:42.219Z,13.98
2018-10-01T00:42:42.213Z,14.01
2018-10-01T00:43:42.211Z,13.98
2018-10-01T00:44:42.204Z,14.02
2018-10-01T00:45:42.193Z,13.96
2018-10-01T00:46:42.189Z,13.94
2018-10-01T00:47:42.183Z,14.01
2018-10-01T00:48:42.177Z,13.98
2018-10-01T00:49:42.179Z,13.96
2018-10-01T00:50:42.173Z,13.96
2018-10-01T00:51:42.170Z,13.96
2018-10-01T00:52:42.163Z,13.98
2018-10-01T00:53:42.152Z,13.86
2018-10-01T00:54:42.149Z,13.84
2018-10-01T00:55:42.147Z,13.83
2018-10-01T00:56:42.142Z,13.86
2018-10-01T00:57:42.131Z,13.84
2018-10-01T00:58:42.127Z,13.81
2018-10-01T00:59:42.124Z,13.83
2018-10-01T01:00:42.116Z,13.73
2018-10-01T01:01:42.115Z,13.81
2018-10-01T01:02:42.110Z,13.73
2018-10-01T01:03:42.105Z,13.73
2018-10-01T01:04:42.099Z,13.72
2018-10-01T01:05:42.095Z,13.73
2018-10-01T01:06:42.085Z,13.75
2018-10-01T01:07:42.079Z,13.73
2018-10-01T01:08:42.074Z,13.72
2018-10-01T01:09:42.074Z,13.76
2018-10-01T01:10:42.069Z,13.69
2018-10-01T01:11:42.061Z,13.71
2018-10-01T01:12:42.053Z,13.62
2018-10-01T01:13:42.053Z,13.65
2018-10-01T01:14:42.051Z,13.59
2018-10-01T01:15:42.042Z,13.65
2018-10-01T01:16:42.036Z,13.62
2018-10-01T01:17:42.027Z,13.62
2018-10-01T01:18:42.022Z,13.59
2018-10-01T01:19:42.017Z,13.62
2018-10-01T01:20:42.012Z,13.57
2018-10-01T01:21:42.010Z,13.62
2018-10-01T01:22:42.006Z,13.62
2018-10-01T01:23:42.001Z,13.48
2018-10-01T01:24:41.995Z,13.53
2018-10-01T01:25:41.986Z,13.48
2018-10-01T01:26:41.980Z,13.50
2018-10-01T01:27:41.980Z,13.55
2018-10-01T01:28:41.973Z,13.54
2018-10-01T01:29:41.964Z,13.51
2018-10-01T01:30:41.959Z,13.57
2018-10-01T01:31:41.953Z,13.44
2018-10-01T01:32:41.946Z,13.50
2018-10-01T01:33:41.945Z,13.44
2018-10-01T01:34:41.940Z,13.46
2018-10-01T01:35:41.936Z,13.47
2018-10-01T01:36:41.929Z,13.53
2018-10-01T01:37:41.919Z,13.47
2018-10-01T01:38:41.915Z,13.46
2018-10-01T01:39:41.911Z,13.46
2018-10-01T01:40:41.903Z,13.50
2018-10-01T01:41:41.903Z,13.46
2018-10-01T01:42:41.898Z,13.32
2018-10-01T01:43:41.887Z,13.35
2018-10-01T01:44:41.882Z,13.41
2018-10-01T01:45:41.881Z,13.39
2018-10-01T01:46:41.877Z,13.41
2018-10-01T01:47:41.869Z,13.38
2018-10-01T01:48:41.865Z,13.35
2018-10-01T01:49:41.855Z,13.38
2018-10-01T01:50:41.849Z,13.43
2018-10-01T01:51:41.845Z,13.31
2018-10-01T01:52:41.838Z,13.29
2018-10-01T01:53:41.838Z,13.35
2018-10-01T01:54:41.833Z,13.31
2018-10-01T01:55:41.826Z,13.28
2018-10-01T01:56:41.821Z,13.32
2018-10-01T01:57:41.811Z,13.29
2018-10-01T01:58:41.805Z,13.36
2018-10-01T01:59:41.804Z,13.29
2018-10-01T02:00:41.799Z,13.27
2018-10-01T02:01:41.789Z,13.28
2018-10-01T02:02:41.783Z,13.27
2018-10-01T02:03:41.779Z,13.28
2018-10-01T02:04:41.772Z,13.28
2018-10-01T02:05:41.772Z,13.29
2018-10-01T02:06:41.767Z,13.27
2018-10-01T02:07:41.762Z,13.29
2018-10-01T02:08:41.755Z,13.32
2018-10-01T02:09:41.745Z,13.29
2018-10-01T02:10:41.739Z,13.22
2018-10-01T02:11:41.734Z,13.27
2018-10-01T02:12:41.729Z,13.25
2018-10-01T02:13:41.728Z,13.29
2018-10-01T02:14:41.722Z,13.27
2018-10-01T02:15:41.712Z,13.31
2018-10-01T02:16:41.705Z,13.25
2018-10-01T02:17:41.705Z,13.22
2018-10-01T02:18:41.700Z,13.22
2018-10-01T02:19:41.694Z,13.21
2018-10-01T02:20:41.688Z,13.14
2018-10-01T02:21:41.679Z,13.21
2018-10-01T02:22:41.673Z,13.28
2018-10-01T02:23:41.667Z,13.32
2018-10-01T02:24:41.661Z,13.24
2018-10-01T02:25:41.661Z,13.25
2018-10-01T02:26:41.656Z,13.17
2018-10-01T02:27:41.650Z,13.24
2018-10-01T02:28:41.643Z,13.25
2018-10-01T02:29:41.633Z,13.24
2018-10-01T02:30:41.628Z,13.21
2018-10-01T02:31:41.627Z,13.13
2018-10-01T02:32:41.620Z,13.27
2018-10-01T02:33:41.611Z,13.25
2018-10-01T02:34:41.612Z,13.09
2018-10-01T02:35:41.602Z,13.22
2018-10-01T02:36:41.594Z,13.21
2018-10-01T02:37:41.595Z,13.19
2018-10-01T02:38:41.590Z,13.16
2018-10-01T02:39:41.584Z,13.16
2018-10-01T02:40:41.578Z,13.13
2018-10-01T02:41:41.568Z,13.12
2018-10-01T02:42:41.561Z,13.14
2018-10-01T02:43:41.557Z,13.13
2018-10-01T02:44:41.551Z,13.09
2018-10-01T02:45:41.550Z,13.06
2018-10-01T02:46:41.544Z,13.07
2018-10-01T02:47:41.599Z,13.09
2018-10-01T02:48:41.529Z,12.95
2018-10-01T02:49:41.525Z,12.89
2018-10-01T02:50:41.521Z,12.88
2018-10-01T02:51:41.516Z,12.87
2018-10-01T02:52:41.508Z,12.79
2018-10-01T02:53:41.499Z,12.74
2018-10-01T02:54:41.493Z,12.74
2018-10-01T02:55:41.488Z,12.70
2018-10-01T02:56:41.482Z,12.67
2018-10-01T02:57:41.479Z,12.70
2018-10-01T02:58:41.475Z,12.59
2018-10-01T02:59:41.468Z,12.61
2018-10-01T03:00:41.461Z,12.59
2018-10-01T03:01:41.461Z,12.61
2018-10-01T03:02:41.446Z,12.55
2018-10-01T03:03:41.448Z,12.54
2018-10-01T03:04:41.439Z,12.56
2018-10-01T03:05:41.429Z,12.54
2018-10-01T03:06:41.422Z,12.54
2018-10-01T03:07:41.416Z,12.59
2018-10-01T03:08:41.410Z,12.56
2018-10-01T03:09:41.410Z,12.61
2018-10-01T03:10:41.410Z,12.59
2018-10-01T03:11:41.398Z,12.61
2018-10-01T03:12:41.392Z,12.61
2018-10-01T03:13:41.381Z,12.62
2018-10-01T03:14:41.375Z,12.58
2018-10-01T03:15:41.370Z,12.67
2018-10-01T03:16:41.361Z,12.66
2018-10-01T03:17:41.360Z,12.71
2018-10-01T03:18:41.356Z,12.71
2018-10-01T03:19:41.381Z,12.62
2018-10-01T03:20:41.338Z,12.62
2018-10-01T03:21:41.338Z,12.76
2018-10-01T03:22:41.331Z,12.69
2018-10-01T03:23:41.326Z,12.77
2018-10-01T03:24:41.360Z,12.71
2018-10-01T03:25:41.314Z,12.69
2018-10-01T03:26:41.305Z,12.55
2018-10-01T03:27:41.298Z,12.71
2018-10-01T03:28:41.291Z,12.67
2018-10-01T03:29:41.291Z,12.61
2018-10-01T03:30:41.285Z,12.73
2018-10-01T03:31:41.279Z,12.70
2018-10-01T03:32:41.272Z,12.63
2018-10-01T03:33:41.263Z,12.62
2018-10-01T03:34:41.256Z,12.67
2018-10-01T03:35:41.255Z,12.67
2018-10-01T03:36:41.257Z,12.76
2018-10-01T03:37:41.238Z,12.67
2018-10-01T03:38:41.232Z,12.67
2018-10-01T03:39:41.228Z,12.73
2018-10-01T03:40:41.220Z,12.70
2018-10-01T03:41:41.222Z,12.70
2018-10-01T03:42:41.215Z,12.71
2018-10-01T03:43:41.209Z,12.77
2018-10-01T03:44:41.206Z,12.80
2018-10-01T03:45:41.192Z,12.79
2018-10-01T03:46:41.187Z,12.77
2018-10-01T03:47:41.181Z,12.80
2018-10-01T03:48:41.173Z,12.74
2018-10-01T03:49:41.173Z,12.85
2018-10-01T03:50:41.168Z,12.76
2018-10-01T03:51:41.158Z,12.74
2018-10-01T03:52:41.151Z,12.81
2018-10-01T03:53:41.152Z,12.76
2018-10-01T03:54:41.144Z,12.77
2018-10-01T03:55:41.139Z,12.73
2018-10-01T03:56:41.132Z,12.70
2018-10-01T03:57:41.120Z,12.77
2018-10-01T03:58:41.116Z,12.70
2018-10-01T03:59:41.118Z,12.73
2018-10-01T04:00:41.104Z,12.74
2018-10-01T04:01:41.104Z,12.76
2018-10-01T04:02:41.097Z,12.80
2018-10-01T04:03:41.093Z,12.79
2018-10-01T04:04:41.090Z,12.80
2018-10-01T04:05:41.074Z,12.76
2018-10-01T04:06:41.071Z,12.80
2018-10-01T04:07:41.068Z,12.73
2018-10-01T04:08:41.112Z,12.70
2018-10-01T04:09:41.050Z,12.70
2018-10-01T04:10:41.044Z,12.70
2018-10-01T04:11:41.039Z,12.81
2018-10-01T04:12:41.032Z,12.80
2018-10-01T04:13:41.032Z,12.74
2018-10-01T04:14:41.029Z,12.74
2018-10-01T04:15:41.019Z,12.71
2018-10-01T04:16:41.016Z,12.77
2018-10-01T04:17:41.003Z,12.77
2018-10-01T04:18:40.997Z,12.76
2018-10-01T04:19:40.992Z,12.77
2018-10-01T04:20:40.986Z,12.77
2018-10-01T04:21:40.985Z,12.85
2018-10-01T04:22:41.040Z,12.74
2018-10-01T04:23:40.968Z,12.80
2018-10-01T04:24:40.961Z,12.81
2018-10-01T04:25:40.960Z,12.71
2018-10-01T04:26:40.964Z,12.80
2018-10-01T04:27:40.948Z,12.76
2018-10-01T04:28:40.941Z,12.70
2018-10-01T04:29:40.932Z,12.71
2018-10-01T04:30:40.926Z,12.70
2018-10-01T04:31:40.920Z,12.77
2018-10-01T04:32:40.914Z,12.73
2018-10-01T04:33:40.913Z,12.79
2018-10-01T04:34:40.906Z,12.73
2018-10-01T04:35:40.952Z,12.69
2018-10-01T04:36:40.896Z,12.71
2018-10-01T04:37:40.884Z,12.70
2018-10-01T04:38:40.879Z,12.77
2018-10-01T04:39:40.879Z,12.67
2018-10-01T04:40:40.919Z,12.81
2018-10-01T04:41:40.862Z,12.74
2018-10-01T04:42:40.857Z,12.71
2018-10-01T04:43:40.850Z,12.70
2018-10-01T04:44:40.844Z,12.69
2018-10-01T04:45:40.842Z,12.66
2018-10-01T04:46:40.866Z,12.70
2018-10-01T04:47:40.829Z,12.69
2018-10-01T04:48:40.825Z,12.63
2018-10-01T04:49:40.815Z,12.73
2018-10-01T04:50:40.809Z,12.66
2018-10-01T04:51:40.807Z,12.58
2018-10-01T04:52:40.796Z,12.70
2018-10-01T04:53:40.796Z,12.67
2018-10-01T04:54:40.790Z,12.62
2018-10-01T04:55:40.779Z,12.73
2018-10-01T04:56:40.774Z,12.61
2018-10-01T04:57:40.773Z,12.61
2018-10-01T04:58:40.888Z,12.55
2018-10-01T04:59:40.768Z,12.73
2018-10-01T05:00:40.753Z,12.59
2018-10-01T05:01:40.743Z,12.59
2018-10-01T05:02:40.739Z,12.61
2018-10-01T05:03:40.733Z,12.61
2018-10-01T05:04:40.726Z,12.67
2018-10-01T05:05:40.726Z,12.63
2018-10-01T05:06:40.719Z,12.59
2018-10-01T05:07:40.713Z,12.59
2018-10-01T05:08:40.707Z,12.61
2018-10-01T05:09:40.700Z,12.59
2018-10-01T05:10:40.691Z,12.70
2018-10-01T05:11:40.691Z,12.67
2018-10-01T05:12:40.683Z,12.70
2018-10-01T05:13:40.675Z,12.70
2018-10-01T05:14:40.694Z,12.55
2018-10-01T05:15:40.662Z,12.58
2018-10-01T05:16:40.655Z,12.59
2018-10-01T05:17:40.656Z,12.66
2018-10-01T05:18:40.650Z,12.56
2018-10-01T05:19:40.644Z,12.61
2018-10-01T05:20:40.639Z,12.58
2018-10-01T05:21:40.628Z,12.59
2018-10-01T05:22:40.621Z,12.55
2018-10-01T05:23:40.615Z,12.51
2018-10-01T05:24:40.610Z,12.54
2018-10-01T05:25:40.607Z,12.49
2018-10-01T05:26:40.602Z,12.44
2018-10-01T05:27:40.591Z,12.48
2018-10-01T05:28:40.585Z,12.37
2018-10-01T05:29:40.584Z,12.37
2018-10-01T05:30:40.579Z,12.41
2018-10-01T05:31:40.573Z,12.40
2018-10-01T05:32:40.567Z,12.33
2018-10-01T05:33:40.555Z,12.33
2018-10-01T05:34:40.549Z,12.36
2018-10-01T05:35:40.544Z,12.31
2018-10-01T05:36:40.538Z,12.30
2018-10-01T05:37:40.584Z,12.30
2018-10-01T05:38:40.531Z,12.30
2018-10-01T05:39:40.523Z,12.23
2018-10-01T05:40:40.517Z,12.21
2018-10-01T05:41:40.507Z,12.23
2018-10-01T05:42:40.501Z,12.21
2018-10-01T05:43:40.500Z,12.22
2018-10-01T05:44:40.492Z,12.34
2018-10-01T05:45:40.482Z,12.33
2018-10-01T05:46:40.476Z,12.31
2018-10-01T05:47:40.472Z,12.38
2018-10-01T05:48:40.464Z,12.37
2018-10-01T05:49:40.464Z,12.41
2018-10-01T05:50:40.457Z,12.40
2018-10-01T05:51:40.452Z,12.43
2018-10-01T05:52:40.444Z,12.41
2018-10-01T05:53:40.460Z,12.41
2018-10-01T05:54:40.429Z,12.51
2018-10-01T05:55:40.422Z,12.46
2018-10-01T05:56:40.415Z,12.44
2018-10-01T05:57:40.488Z,12.36
2018-10-01T05:58:40.408Z,12.37
2018-10-01T05:59:40.398Z,12.38
2018-10-01T06:00:40.391Z,12.37
2018-10-01T06:01:40.390Z,12.49
2018-10-01T06:02:40.384Z,12.43
2018-10-01T06:03:40.379Z,12.41
2018-10-01T06:04:40.388Z,12.48
2018-10-01T06:05:40.362Z,12.48
2018-10-01T06:06:40.357Z,12.48
2018-10-01T06:07:40.348Z,12.55
2018-10-01T06:08:40.342Z,12.54
2018-10-01T06:09:40.342Z,12.55
2018-10-01T06:10:40.336Z,12.51
2018-10-01T06:11:40.335Z,12.58
2018-10-01T06:12:40.326Z,12.55
2018-10-01T06:13:40.312Z,12.52
2018-10-01T06:14:40.306Z,12.54
2018-10-01T06:15:40.306Z,12.56
2018-10-01T06:16:40.299Z,12.54
2018-10-01T06:17:40.289Z,12.54
2018-10-01T06:18:40.283Z,12.56
2018-10-01T06:19:40.276Z,12.48
2018-10-01T06:20:40.291Z,12.66
2018-10-01T06:21:40.269Z,12.51
2018-10-01T06:22:40.264Z,12.59
2018-10-01T06:23:40.257Z,12.74
2018-10-01T06:24:40.253Z,12.67
2018-10-01T06:25:40.240Z,12.80
2018-10-01T06:26:40.235Z,12.77
2018-10-01T06:27:40.230Z,12.80
2018-10-01T06:28:40.224Z,12.79
2018-10-01T06:29:40.221Z,12.85
2018-10-01T06:30:40.217Z,12.89
2018-10-01T06:31:40.206Z,12.91
2018-10-01T06:32:40.200Z,12.91
2018-10-01T06:33:40.198Z,12.94
2018-10-01T06:34:40.197Z,12.96
2018-10-01T06:35:40.186Z,12.88
2018-10-01T06:36:40.179Z,12.91
2018-10-01T06:37:40.170Z,12.98
2018-10-01T06:38:40.168Z,13.04
2018-10-01T06:39:40.159Z,13.46
2018-10-01T06:40:40.152Z,14.27
2018-10-01T06:41:40.240Z,15.31
2018-10-01T06:42:40.146Z,16.13
2018-10-01T06:43:40.142Z,16.80
2018-10-01T06:44:40.139Z,17.25
2018-10-01T06:45:40.126Z,17.87
2018-10-01T06:46:40.122Z,18.44
2018-10-01T06:47:40.122Z,18.79
2018-10-01T06:48:40.116Z,18.90
2018-10-01T06:49:40.108Z,19.55
2018-10-01T06:50:40.108Z,20.08
2018-10-01T06:51:40.103Z,20.50
2018-10-01T06:52:40.097Z,20.91
2018-10-01T06:53:40.099Z,21.42
2018-10-01T06:54:40.097Z,21.93
2018-10-01T06:55:40.096Z,21.56
2018-10-01T06:56:40.094Z,21.81
2018-10-01T06:57:40.088Z,21.85
2018-10-01T06:58:40.095Z,22.14
2018-10-01T06:59:40.098Z,22.17
2018-10-01T07:00:40.084Z,22.42
2018-10-01T07:01:40.090Z,22.64
2018-10-01T07:02:40.093Z,22.97
2018-10-01T07:03:40.086Z,23.47
2018-10-01T07:04:40.085Z,23.75
2018-10-01T07:05:40.122Z,24.00
2018-10-01T07:06:40.092Z,24.48
2018-10-01T07:07:40.102Z,24.55
2018-10-01T07:08:40.095Z,24.83
2018-10-01T07:09:40.090Z,25.27
2018-10-01T07:10:40.092Z,25.66
2018-10-01T07:11:40.364Z,25.91
2018-10-01T07:12:40.096Z,26.27
2018-10-01T07:13:40.104Z,26.41
2018-10-01T07:14:40.106Z,26.39
2018-10-01T07:15:40.108Z,26.41
2018-10-01T07:16:40.111Z,26.54
2018-10-01T07:17:40.109Z,26.11
2018-10-01T07:18:40.114Z,26.66
2018-10-01T07:19:40.121Z,26.68
2018-10-01T07:20:40.124Z,26.65
2018-10-01T07:21:40.124Z,26.71
2018-10-01T07:22:40.217Z,26.81
2018-10-01T07:23:40.132Z,26.94
2018-10-01T07:24:40.135Z,27.05
2018-10-01T07:25:40.144Z,26.96
2018-10-01T07:26:40.155Z,26.73
2018-10-01T07:27:40.154Z,26.68
2018-10-01T07:28:40.158Z,27.02
2018-10-01T07:29:40.157Z,27.20
2018-10-01T07:30:40.161Z,27.43
2018-10-01T07:31:40.166Z,27.38
2018-10-01T07:32:40.171Z,27.53
2018-10-01T07:33:40.178Z,27.48
2018-10-01T07:34:40.184Z,27.76
2018-10-01T07:35:40.185Z,27.81
2018-10-01T07:36:40.188Z,28.13
2018-10-01T07:37:40.199Z,27.99
2018-10-01T07:38:40.204Z,28.28
2018-10-01T07:39:40.210Z,28.02
2018-10-01T07:40:40.213Z,27.88
2018-10-01T07:41:40.214Z,27.25
2018-10-01T07:42:40.220Z,26.86
2018-10-01T07:43:40.226Z,26.29
2018-10-01T07:44:40.236Z,25.01
2018-10-01T07:45:40.243Z,24.64
2018-10-01T07:46:40.260Z,24.14
2018-10-01T07:47:40.252Z,23.94
2018-10-01T07:48:40.256Z,23.56
2018-10-01T07:49:40.269Z,23.62
2018-10-01T07:50:40.364Z,24.48
2018-10-01T07:51:40.272Z,25.38
2018-10-01T07:52:40.292Z,26.23
2018-10-01T07:53:40.286Z,26.73
2018-10-01T07:54:40.285Z,26.36
2018-10-01T07:55:40.287Z,25.64
2018-10-01T07:56:40.290Z,25.41
2018-10-01T07:57:40.302Z,25.67
2018-10-01T07:58:40.304Z,26.00
2018-10-01T07:59:40.466Z,26.34
2018-10-01T08:00:40.316Z,26.88
2018-10-01T08:01:40.314Z,27.48
2018-10-01T08:02:40.404Z,28.11
2018-10-01T08:03:40.324Z,28.45
2018-10-01T08:04:40.329Z,28.20
2018-10-01T08:05:40.338Z,28.21
2018-10-01T08:06:40.347Z,28.28
2018-10-01T08:07:40.344Z,28.64
2018-10-01T08:08:40.433Z,28.55
2018-10-01T08:09:40.361Z,29.05
2018-10-01T08:10:40.416Z,29.35
2018-10-01T08:11:40.379Z,29.52
2018-10-01T08:12:40.379Z,29.70
2018-10-01T08:13:40.385Z,29.47
2018-10-01T08:14:40.455Z,29.60
2018-10-01T08:15:40.402Z,29.99
2018-10-01T08:16:40.403Z,29.94
2018-10-01T08:17:40.412Z,30.06
2018-10-01T08:18:40.419Z,30.23
2018-10-01T08:19:40.427Z,30.63
2018-10-01T08:20:40.440Z,30.67
2018-10-01T08:21:40.436Z,30.81
2018-10-01T08:22:40.446Z,30.97
2018-10-01T08:23:40.550Z,30.93
2018-10-01T08:24:40.465Z,30.79
2018-10-01T08:25:40.471Z,30.66
2018-10-01T08:26:40.601Z,29.99
2018-10-01T08:27:40.486Z,29.74
2018-10-01T08:28:40.492Z,29.89
2018-10-01T08:29:40.597Z,30.30
2018-10-01T08:30:40.515Z,30.37
2018-10-01T08:31:40.524Z,31.09
2018-10-01T08:32:40.546Z,31.28
2018-10-01T08:33:40.535Z,30.45
2018-10-01T08:34:40.545Z,29.64
2018-10-01T08:35:40.556Z,28.97
2018-10-01T08:36:40.563Z,29.70
2018-10-01T08:37:40.577Z,29.17
2018-10-01T08:38:40.726Z,28.57
2018-10-01T08:39:40.590Z,28.14
2018-10-01T08:40:40.597Z,27.74
2018-10-01T08:41:40.610Z,26.38
2018-10-01T08:42:40.619Z,26.11
2018-10-01T08:43:40.626Z,25.89
2018-10-01T08:44:40.635Z,26.97
2018-10-01T08:45:40.637Z,27.71
2018-10-01T08:46:40.646Z,27.49
2018-10-01T08:47:40.662Z,26.86
2018-10-01T08:48:40.660Z,26.31
2018-10-01T08:49:40.672Z,26.08
2018-10-01T08:50:40.680Z,25.61
2018-10-01T08:51:40.694Z,25.09
2018-10-01T08:52:40.694Z,24.56
2018-10-01T08:53:40.695Z,24.15
2018-10-01T08:54:40.703Z,23.99
2018-10-01T08:55:40.713Z,23.79
2018-10-01T08:56:40.718Z,23.50
2018-10-01T08:57:40.721Z,23.25
2018-10-01T08:58:40.726Z,22.97
2018-10-01T08:59:40.731Z,22.85
2018-10-01T09:00:40.735Z,22.72
2018-10-01T09:01:40.745Z,22.86
2018-10-01T09:02:40.834Z,23.39
2018-10-01T09:03:40.756Z,23.81
2018-10-01T09:04:40.762Z,23.64
2018-10-01T09:05:40.761Z,23.59
2018-10-01T09:06:40.811Z,23.96
2018-10-01T09:07:40.770Z,24.53
2018-10-01T09:08:40.775Z,24.82
2018-10-01T09:09:40.782Z,24.66
2018-10-01T09:10:40.787Z,25.53
2018-10-01T09:11:40.786Z,26.84
2018-10-01T09:12:40.791Z,27.18
2018-10-01T09:13:40.803Z,27.78
2018-10-01T09:14:40.881Z,28.58
2018-10-01T09:15:40.812Z,29.03
2018-10-01T09:16:40.813Z,29.52
2018-10-01T09:17:40.815Z,30.23
2018-10-01T09:18:40.823Z,30.54
2018-10-01T09:19:40.828Z,30.59
2018-10-01T09:20:40.854Z,30.93
2018-10-01T09:21:40.895Z,31.04
2018-10-01T09:22:40.853Z,31.71
2018-10-01T09:23:40.859Z,31.78
2018-10-01T09:24:40.865Z,31.97
2018-10-01T09:25:40.869Z,32.50
2018-10-01T09:26:40.968Z,31.82
2018-10-01T09:27:40.890Z,30.81
2018-10-01T09:28:40.899Z,30.63
2018-10-01T09:29:40.905Z,31.12
2018-10-01T09:30:40.912Z,31.00
2018-10-01T09:31:40.922Z,30.75
2018-10-01T09:32:40.990Z,31.05
2018-10-01T09:33:40.946Z,30.26
2018-10-01T09:34:40.955Z,29.27
2018-10-01T09:35:40.965Z,29.23
2018-10-01T09:36:40.973Z,29.32
2018-10-01T09:37:40.979Z,27.91
2018-10-01T09:38:41.030Z,26.75
2018-10-01T09:39:40.996Z,26.41
2018-10-01T09:40:41.101Z,25.57
2018-10-01T09:41:41.016Z,24.55
2018-10-01T09:42:41.026Z,23.77
2018-10-01T09:43:41.028Z,23.07
2018-10-01T09:44:41.035Z,23.47
2018-10-01T09:45:41.046Z,24.86
2018-10-01T09:46:41.054Z,25.69
2018-10-01T09:47:41.065Z,26.57
2018-10-01T09:48:41.067Z,27.30
2018-10-01T09:49:41.067Z,28.13
2018-10-01T09:50:41.077Z,27.77
2018-10-01T09:51:41.082Z,27.46
2018-10-01T09:52:41.088Z,26.42
2018-10-01T09:53:41.121Z,24.98
2018-10-01T09:54:41.106Z,24.12
2018-10-01T09:55:41.111Z,23.67
2018-10-01T09:56:41.228Z,23.39
2018-10-01T09:57:41.118Z,23.16
2018-10-01T09:58:41.236Z,22.79
2018-10-01T09:59:41.136Z,22.63
2018-10-01T10:00:41.341Z,22.57
2018-10-01T10:01:41.142Z,23.35
2018-10-01T10:02:41.146Z,24.86
2018-10-01T10:03:41.152Z,25.79
2018-10-01T10:04:41.166Z,24.98
2018-10-01T10:05:41.169Z,24.48
2018-10-01T10:06:41.171Z,23.96
2018-10-01T10:07:41.176Z,23.62
2018-10-01T10:08:41.293Z,23.32
2018-10-01T10:09:41.184Z,22.51
2018-10-01T10:10:41.184Z,21.67
2018-10-01T10:11:41.190Z,21.36
2018-10-01T10:12:41.194Z,20.50
2018-10-01T10:13:41.201Z,19.49
2018-10-01T10:14:41.332Z,18.71
2018-10-01T10:15:41.206Z,18.26
2018-10-01T10:16:41.334Z,17.74
2018-10-01T10:17:41.215Z,17.10
2018-10-01T10:18:41.219Z,16.84
2018-10-01T10:19:41.221Z,16.65
2018-10-01T10:20:41.222Z,16.40
2018-10-01T10:21:41.221Z,16.37
2018-10-01T10:22:41.220Z,16.36
2018-10-01T10:23:41.222Z,16.29
2018-10-01T10:24:41.221Z,16.26
2018-10-01T10:25:41.226Z,16.33
2018-10-01T10:26:41.229Z,16.47
2018-10-01T10:27:41.227Z,16.62
2018-10-01T10:28:41.227Z,16.77
2018-10-01T10:29:41.222Z,18.09
2018-10-01T10:30:41.220Z,18.54
2018-10-01T10:31:41.231Z,18.78
2018-10-01T10:32:41.224Z,19.01
2018-10-01T10:33:41.219Z,19.67
2018-10-01T10:34:41.219Z,20.73
2018-10-01T10:35:41.220Z,21.63
2018-10-01T10:36:41.217Z,22.36
2018-10-01T10:37:41.221Z,23.14
2018-10-01T10:38:41.222Z,23.54
2018-10-01T10:39:41.298Z,24.30
2018-10-01T10:40:41.224Z,24.61
2018-10-01T10:41:41.250Z,24.70
2018-10-01T10:42:41.225Z,25.45
2018-10-01T10:43:41.245Z,26.34
2018-10-01T10:44:41.232Z,26.81
2018-10-01T10:45:41.235Z,27.35
2018-10-01T10:46:41.239Z,26.71
2018-10-01T10:47:41.238Z,25.75
2018-10-01T10:48:41.245Z,25.01
2018-10-01T10:49:41.251Z,24.31
2018-10-01T10:50:41.318Z,24.11
2018-10-01T10:51:41.258Z,24.12
2018-10-01T10:52:41.262Z,23.72
2018-10-01T10:53:41.262Z,23.18
2018-10-01T10:54:41.265Z,22.61
2018-10-01T10:55:41.271Z,23.56
2018-10-01T10:56:41.373Z,24.24
2018-10-01T10:57:41.281Z,24.33
2018-10-01T10:58:41.285Z,24.82
2018-10-01T10:59:41.293Z,25.34
2018-10-01T11:00:41.303Z,25.14
2018-10-01T11:01:41.292Z,24.41
2018-10-01T11:02:41.297Z,23.56
2018-10-01T11:03:41.307Z,23.12
2018-10-01T11:04:41.310Z,22.78
2018-10-01T11:05:41.309Z,22.91
2018-10-01T11:06:41.314Z,23.63
2018-10-01T11:07:41.319Z,23.67
2018-10-01T11:08:41.351Z,23.81
2018-10-01T11:09:41.331Z,23.81
2018-10-01T11:10:41.336Z,24.51
2018-10-01T11:11:41.339Z,25.36
2018-10-01T11:12:41.343Z,25.76
2018-10-01T11:13:41.343Z,26.04
2018-10-01T11:14:41.463Z,25.98
2018-10-01T11:15:41.353Z,25.69
2018-10-01T11:16:41.357Z,25.04
2018-10-01T11:17:41.367Z,24.49
2018-10-01T11:18:41.548Z,23.84
2018-10-01T11:19:41.379Z,23.41
2018-10-01T11:20:41.430Z,23.09
2018-10-01T11:21:41.523Z,23.14
2018-10-01T11:22:41.392Z,22.74
2018-10-01T11:23:41.394Z,22.02
2018-10-01T11:24:41.397Z,21.48
2018-10-01T11:25:41.396Z,20.73
2018-10-01T11:26:41.450Z,19.50
2018-10-01T11:27:41.468Z,18.87
2018-10-01T11:28:41.455Z,18.32
2018-10-01T11:29:41.433Z,18.05
2018-10-01T11:30:41.419Z,17.24
2018-10-01T11:31:41.496Z,16.88
2018-10-01T11:32:41.425Z,16.37
2018-10-01T11:33:41.488Z,15.93
2018-10-01T11:34:41.432Z,15.60
2018-10-01T11:35:41.438Z,15.52
2018-10-01T11:36:41.431Z,15.46
2018-10-01T11:37:41.428Z,15.51
2018-10-01T11:38:41.427Z,15.48
2018-10-01T11:39:41.479Z,15.46
2018-10-01T11:40:41.427Z,15.44
2018-10-01T11:41:41.432Z,15.56
2018-10-01T11:42:41.432Z,15.64
2018-10-01T11:43:41.431Z,15.73
2018-10-01T11:44:41.430Z,15.78
2018-10-01T11:45:41.490Z,15.84
2018-10-01T11:46:41.424Z,15.81
2018-10-01T11:47:41.422Z,16.01
2018-10-01T11:48:41.424Z,16.11
2018-10-01T11:49:41.426Z,16.26
2018-10-01T11:50:41.425Z,16.41
2018-10-01T11:51:41.442Z,16.50
2018-10-01T11:52:41.416Z,16.51
2018-10-01T11:53:41.419Z,16.66
2018-10-01T11:54:41.418Z,16.72
2018-10-01T11:55:41.425Z,16.69
2018-10-01T11:56:41.414Z,16.72
2018-10-01T11:57:41.453Z,16.85
2018-10-01T11:58:41.407Z,16.87
2018-10-01T11:59:41.405Z,17.10
2018-10-01T12:00:41.403Z,17.20
2018-10-01T12:01:41.405Z,17.25
2018-10-01T12:02:41.405Z,17.36
2018-10-01T12:03:41.492Z,17.40
2018-10-01T12:04:41.402Z,17.60
2018-10-01T12:05:41.400Z,17.74
2018-10-01T12:06:41.394Z,17.89
2018-10-01T12:07:41.397Z,18.16
2018-10-01T12:08:41.395Z,18.26
2018-10-01T12:09:41.461Z,18.23
2018-10-01T12:10:41.390Z,18.14
2018-10-01T12:11:41.389Z,18.21
2018-10-01T12:12:41.385Z,18.13
2018-10-01T12:13:41.389Z,17.83
2018-10-01T12:14:41.388Z,17.92
2018-10-01T12:15:41.490Z,17.81
2018-10-01T12:16:41.387Z,17.87
2018-10-01T12:17:41.381Z,17.76
2018-10-01T12:18:41.379Z,17.47
2018-10-01T12:19:41.379Z,17.53
2018-10-01T12:20:41.376Z,17.51
2018-10-01T12:21:41.552Z,17.42
2018-10-01T12:22:41.382Z,17.40
2018-10-01T12:23:41.375Z,17.49
2018-10-01T12:24:41.372Z,17.49
2018-10-01T12:25:41.376Z,17.55
2018-10-01T12:26:41.377Z,17.63
2018-10-01T12:27:41.394Z,17.70
2018-10-01T12:28:41.373Z,17.87
2018-10-01T12:29:41.368Z,17.81
2018-10-01T12:30:41.367Z,17.83
2018-10-01T12:31:41.392Z,17.79
2018-10-01T12:32:41.365Z,17.65
2018-10-01T12:33:41.400Z,17.65
2018-10-01T12:34:41.368Z,17.54
2018-10-01T12:35:41.366Z,17.53
2018-10-01T12:36:41.365Z,17.53
2018-10-01T12:37:41.363Z,17.57
2018-10-01T12:38:41.359Z,17.51
2018-10-01T12:39:41.438Z,17.70
2018-10-01T12:40:41.361Z,17.74
2018-10-01T12:41:41.354Z,17.81
2018-10-01T12:42:41.358Z,17.68
2018-10-01T12:43:41.353Z,17.49
2018-10-01T12:44:41.353Z,17.49
2018-10-01T12:45:41.380Z,17.24
2018-10-01T12:46:41.355Z,17.17
2018-10-01T12:47:41.356Z,16.80
2018-10-01T12:48:41.353Z,16.72
2018-10-01T12:49:41.345Z,16.73
2018-10-01T12:50:41.345Z,16.63
2018-10-01T12:51:41.411Z,16.69
2018-10-01T12:52:41.342Z,16.40